Time;durP1;ratioP1;P1;durP2;ratioP2;P2;SDS_P1;SDS_P2;PMS_P1;PMS_P2;Temp;Humidity;BMP_temperature;BMP_pressure;BME280_temperature;BME280_humidity;BME280_pressure;Samples;Min_cycle;Max_cycle;Signal;HPM_P1;HPM_P2
2021/03/30 00:01:28;;;;;;;4.40;3.13;;;2.60;99.90;;;;;;5057514;28;20057;-83
2021/03/30 00:03:54;;;;;;;4.82;3.05;;;2.50;99.90;;;;;;5055887;28;20049;-83
2021/03/30 00:06:20;;;;;;;6.93;3.10;;;2.50;99.90;;;;;;5055667;28;20482;-83
2021/03/30 00:08:47;;;;;;;8.80;2.90;;;2.50;99.90;;;;;;5056819;28;20474;-83
2021/03/30 00:11:13;;;;;;;8.35;3.40;;;2.50;99.90;;;;;;5055893;28;20056;-83
2021/03/30 00:13:39;;;;;;;4.97;3.05;;;2.50;99.90;;;;;;5055959;28;20041;-83
2021/03/30 00:16:06;;;;;;;5.22;3.05;;;2.40;99.90;;;;;;5055667;28;20482;-83
2021/03/30 00:18:33;;;;;;;8.23;3.13;;;2.40;99.90;;;;;;5055360;28;20131;-83
2021/03/30 00:21:00;;;;;;;3.03;2.72;;;2.40;99.90;;;;;;5058390;28;20432;-84
2021/03/30 00:23:26;;;;;;;7.07;3.50;;;2.40;99.90;;;;;;5061847;28;20048;-83
2021/03/30 00:25:53;;;;;;;6.72;3.00;;;2.40;99.90;;;;;;5058119;28;20048;-83
2021/03/30 00:28:19;;;;;;;5.72;3.28;;;2.40;99.90;;;;;;5058566;28;20064;-84
2021/03/30 00:30:46;;;;;;;8.05;3.50;;;2.40;99.90;;;;;;5058221;28;20103;-83
2021/03/30 00:33:12;;;;;;;6.20;3.13;;;2.40;99.90;;;;;;5057718;28;20045;-84
2021/03/30 00:35:39;;;;;;;9.95;3.47;;;2.30;99.90;;;;;;5058883;28;20049;-83
2021/03/30 00:38:09;;;;;;;7.43;3.13;;;2.40;99.90;;;;;;5056903;28;20079;-84
2021/03/30 00:40:37;;;;;;;7.93;3.80;;;2.50;99.90;;;;;;5056993;28;20235;-84
2021/03/30 00:43:04;;;;;;;5.60;3.17;;;2.50;99.90;;;;;;5057982;28;20076;-84
2021/03/30 00:45:31;;;;;;;7.95;3.45;;;2.50;99.90;;;;;;5057405;28;20128;-84
2021/03/30 00:47:58;;;;;;;10.02;3.25;;;2.50;99.90;;;;;;5056723;28;20052;-84
2021/03/30 00:50:32;;;;;;;8.52;3.13;;;2.50;99.90;;;;;;5057710;28;20476;-84
2021/03/30 00:53:00;;;;;;;7.78;3.00;;;2.40;99.90;;;;;;5056834;28;20053;-83
2021/03/30 00:55:26;;;;;;;5.82;2.85;;;2.20;99.90;;;;;;5056490;28;20114;-83
2021/03/30 00:57:53;;;;;;;3.53;2.45;;;2.10;99.90;;;;;;5057601;28;20056;-83
2021/03/30 01:00:21;;;;;;;7.00;3.45;;;2.10;99.90;;;;;;5057447;28;20105;-83
2021/03/30 01:02:47;;;;;;;5.22;3.10;;;2.00;99.90;;;;;;5056097;28;20521;-84
2021/03/30 01:05:14;;;;;;;5.25;3.35;;;1.90;99.90;;;;;;5056350;28;20041;-83
2021/03/30 01:08:11;;;;;;;6.43;3.67;;;1.80;99.90;;;;;;5056447;28;20084;-83
2021/03/30 01:10:49;;;;;;;6.68;3.40;;;1.80;99.90;;;;;;5054527;28;20081;-83
2021/03/30 01:13:38;;;;;;;7.85;3.22;;;1.90;99.90;;;;;;5055680;28;20105;-83
2021/03/30 01:16:14;;;;;;;5.82;3.60;;;1.80;99.90;;;;;;5054383;28;20130;-83
2021/03/30 01:18:56;;;;;;;4.90;3.40;;;1.90;99.90;;;;;;5054203;28;20085;-83
2021/03/30 01:22:00;;;;;;;5.15;3.05;;;1.90;99.90;;;;;;5054911;28;20144;-83
2021/03/30 01:24:41;;;;;;;8.75;3.75;;;2.00;99.90;;;;;;5054734;28;20144;-83
2021/03/30 01:27:45;;;;;;;6.97;3.22;;;1.90;99.90;;;;;;5057013;28;20049;-84
2021/03/30 01:30:14;;;;;;;4.75;3.10;;;1.90;99.90;;;;;;5054876;28;20075;-84
2021/03/30 01:32:44;;;;;;;9.60;3.17;;;1.90;99.90;;;;;;5054023;28;20068;-84
2021/03/30 01:35:14;;;;;;;4.60;3.20;;;1.80;99.90;;;;;;5054334;28;20052;-83
2021/03/30 01:37:45;;;;;;;7.55;3.03;;;1.70;99.90;;;;;;5053903;28;20073;-82
2021/03/30 01:40:14;;;;;;;9.90;3.28;;;1.60;99.90;;;;;;5054051;28;20059;-82
2021/03/30 01:42:42;;;;;;;7.60;3.10;;;1.60;99.90;;;;;;5055246;28;20140;-82
2021/03/30 01:45:09;;;;;;;5.40;3.03;;;1.60;99.90;;;;;;5056262;28;20068;-82
2021/03/30 01:47:37;;;;;;;4.85;3.03;;;1.70;99.90;;;;;;5054869;28;20045;-82
2021/03/30 01:50:06;;;;;;;8.23;3.40;;;1.70;99.90;;;;;;5055305;28;20476;-82
2021/03/30 01:52:33;;;;;;;10.75;3.55;;;1.80;99.90;;;;;;5056091;28;20064;-82
2021/03/30 01:55:01;;;;;;;8.13;3.53;;;1.80;99.90;;;;;;5054280;28;20048;-82
2021/03/30 01:57:31;;;;;;;4.75;3.15;;;1.70;99.90;;;;;;5054084;28;20128;-82
2021/03/30 01:59:59;;;;;;;9.02;3.20;;;1.70;99.90;;;;;;5053852;28;20061;-82
2021/03/30 02:02:26;;;;;;;6.18;2.92;;;1.70;99.90;;;;;;5053701;28;20137;-84
2021/03/30 02:04:53;;;;;;;13.00;3.50;;;1.70;99.90;;;;;;5054621;28;20080;-84
2021/03/30 02:07:21;;;;;;;6.75;3.20;;;1.70;99.90;;;;;;5053712;28;20045;-84
2021/03/30 02:09:57;;;;;;;7.78;3.38;;;1.70;99.90;;;;;;5053317;28;20049;-84
2021/03/30 02:12:30;;;;;;;5.95;2.80;;;1.60;99.90;;;;;;5054546;28;20128;-84
2021/03/30 02:14:57;;;;;;;2.83;2.58;;;1.50;99.90;;;;;;5053269;28;20052;-84
2021/03/30 02:17:30;;;;;;;11.25;3.42;;;1.40;99.90;;;;;;5053454;28;20486;-84
2021/03/30 02:20:09;;;;;;;7.18;3.53;;;1.30;99.90;;;;;;5053145;28;20064;-84
2021/03/30 02:23:00;;;;;;;7.20;3.33;;;1.20;99.90;;;;;;5053289;28;20485;-84
2021/03/30 02:25:29;;;;;;;3.50;3.08;;;1.20;99.90;;;;;;5053524;28;20555;-84
2021/03/30 02:28:04;;;;;;;6.78;3.08;;;1.20;99.90;;;;;;5054158;28;20458;-84
2021/03/30 02:30:33;;;;;;;10.20;3.47;;;1.10;99.90;;;;;;5054893;28;20472;-84
2021/03/30 02:33:00;;;;;;;5.00;3.35;;;1.10;99.90;;;;;;5054675;28;20080;-84
2021/03/30 02:35:27;;;;;;;5.90;3.40;;;1.00;99.90;;;;;;5053601;28;20079;-84
2021/03/30 02:37:56;;;;;;;8.10;2.80;;;1.00;99.90;;;;;;5053400;28;20099;-84
2021/03/30 02:40:24;;;;;;;5.95;3.35;;;0.90;99.90;;;;;;5053944;28;20086;-84
2021/03/30 02:42:53;;;;;;;6.13;3.25;;;1.00;99.90;;;;;;5053292;28;20053;-84
2021/03/30 02:45:27;;;;;;;7.07;3.22;;;0.90;99.90;;;;;;5052437;28;20512;-84
2021/03/30 02:48:06;;;;;;;7.07;3.08;;;0.80;99.90;;;;;;5053689;28;20107;-84
2021/03/30 02:50:34;;;;;;;6.30;3.25;;;0.80;99.90;;;;;;5054488;28;20053;-84
2021/03/30 02:53:02;;;;;;;9.50;3.78;;;0.80;99.90;;;;;;5053805;28;20080;-84
2021/03/30 02:55:32;;;;;;;12.63;4.55;;;0.70;99.90;;;;;;5052968;28;20048;-83
2021/03/30 02:57:58;;;;;;;13.73;5.10;;;0.80;99.90;;;;;;5052634;28;20099;-84
2021/03/30 03:00:25;;;;;;;6.30;3.63;;;0.90;99.90;;;;;;5054120;28;20099;-84
2021/03/30 03:02:55;;;;;;;10.25;3.95;;;1.00;99.90;;;;;;5052504;28;20167;-84
2021/03/30 03:05:22;;;;;;;4.78;3.50;;;1.00;99.90;;;;;;5052596;28;20091;-84
2021/03/30 03:07:50;;;;;;;5.63;3.55;;;1.00;99.90;;;;;;5052883;28;20049;-84
2021/03/30 03:10:17;;;;;;;9.05;4.72;;;0.90;99.90;;;;;;5054029;28;20128;-84
2021/03/30 03:12:43;;;;;;;7.25;2.97;;;0.80;99.90;;;;;;5052655;28;20513;-84
2021/03/30 03:15:14;;;;;;;5.75;3.50;;;0.80;99.90;;;;;;5053223;28;20098;-84
2021/03/30 03:17:41;;;;;;;8.88;3.83;;;0.80;99.90;;;;;;5053040;28;20052;-84
2021/03/30 03:20:09;;;;;;;6.22;3.80;;;0.80;99.90;;;;;;5052819;28;20053;-84
2021/03/30 03:22:36;;;;;;;7.75;3.90;;;0.80;99.90;;;;;;5053859;28;20083;-84
2021/03/30 03:25:08;;;;;;;13.60;3.97;;;0.90;99.90;;;;;;5053306;28;20060;-84
2021/03/30 03:27:35;;;;;;;6.25;3.40;;;0.90;99.90;;;;;;5052586;28;20103;-84
2021/03/30 03:30:10;;;;;;;7.05;3.63;;;0.90;99.90;;;;;;5052715;28;20084;-84
2021/03/30 03:32:36;;;;;;;5.72;3.70;;;0.90;99.90;;;;;;5052654;28;20087;-84
2021/03/30 03:35:03;;;;;;;5.53;3.22;;;1.00;99.90;;;;;;5052681;28;20449;-84
2021/03/30 03:37:31;;;;;;;6.60;3.53;;;0.90;99.90;;;;;;5053847;28;20045;-84
2021/03/30 03:39:57;;;;;;;6.22;3.85;;;0.80;99.90;;;;;;5052246;28;20088;-84
2021/03/30 03:42:23;;;;;;;6.65;3.88;;;0.70;99.90;;;;;;5052677;28;20088;-84
2021/03/30 03:44:50;;;;;;;4.43;3.38;;;0.60;99.90;;;;;;5055131;28;20079;-84
2021/03/30 03:47:22;;;;;;;7.20;3.25;;;0.50;99.90;;;;;;5055084;28;20049;-84
2021/03/30 03:49:48;;;;;;;12.15;3.70;;;0.50;99.90;;;;;;5054261;28;20063;-84
2021/03/30 03:52:16;;;;;;;6.18;3.42;;;0.40;99.90;;;;;;5053902;28;20068;-84
2021/03/30 03:54:44;;;;;;;10.85;3.42;;;0.30;99.90;;;;;;5053773;28;20045;-84
2021/03/30 03:57:17;;;;;;;8.50;3.78;;;0.30;99.90;;;;;;5058528;28;20044;-84
2021/03/30 03:59:46;;;;;;;9.27;4.60;;;0.30;99.90;;;;;;5056414;28;20045;-84
2021/03/30 04:02:19;;;;;;;7.78;3.65;;;0.30;99.90;;;;;;5057620;28;20049;-85
2021/03/30 04:04:48;;;;;;;10.52;4.05;;;0.30;99.90;;;;;;5056389;28;20041;-84
2021/03/30 04:07:24;;;;;;;8.70;3.65;;;0.40;99.90;;;;;;5056471;28;20106;-84
2021/03/30 04:09:52;;;;;;;6.25;3.60;;;0.30;99.90;;;;;;5056503;28;20537;-85
2021/03/30 04:12:21;;;;;;;10.73;4.50;;;0.30;99.90;;;;;;5056378;28;20045;-84
2021/03/30 04:14:48;;;;;;;9.30;4.18;;;0.30;99.90;;;;;;5057605;28;20052;-85
2021/03/30 04:17:18;;;;;;;8.85;3.70;;;0.30;99.90;;;;;;5056313;28;20075;-85
2021/03/30 04:19:45;;;;;;;6.05;3.63;;;0.30;99.90;;;;;;5055795;28;20045;-85
2021/03/30 04:22:14;;;;;;;6.22;3.70;;;0.20;99.90;;;;;;5057390;28;20068;-85
2021/03/30 04:24:41;;;;;;;5.60;4.13;;;0.30;99.90;;;;;;5057841;28;20127;-85
2021/03/30 04:27:11;;;;;;;16.77;5.65;;;0.20;99.90;;;;;;5057709;28;20072;-85
2021/03/30 04:29:38;;;;;;;7.38;4.28;;;0.30;99.90;;;;;;5056451;28;20136;-84
2021/03/30 04:32:06;;;;;;;12.27;5.55;;;0.20;99.90;;;;;;5057567;28;20075;-85
2021/03/30 04:34:32;;;;;;;10.02;7.65;;;0.20;99.90;;;;;;5058525;28;20045;-85
2021/03/30 04:36:59;;;;;;;15.85;6.80;;;0.20;99.90;;;;;;5056625;28;20067;-84
2021/03/30 04:39:25;;;;;;;22.20;8.00;;;0.20;99.90;;;;;;5056692;28;21318;-84
2021/03/30 04:41:52;;;;;;;19.35;7.97;;;0.20;99.90;;;;;;5057098;28;20069;-84
2021/03/30 04:44:18;;;;;;;13.48;6.30;;;0.10;99.90;;;;;;5056183;28;20436;-84
2021/03/30 04:46:44;;;;;;;11.25;6.10;;;0.20;99.90;;;;;;5055859;28;20064;-84
2021/03/30 04:49:10;;;;;;;12.73;5.70;;;0.10;99.90;;;;;;5057736;28;20473;-85
2021/03/30 04:51:37;;;;;;;8.20;5.38;;;0.20;99.90;;;;;;5056415;28;20091;-84
2021/03/30 04:54:03;;;;;;;11.05;4.47;;;0.20;99.90;;;;;;5056309;28;20498;-85
2021/03/30 04:56:29;;;;;;;18.52;5.28;;;0.30;99.90;;;;;;5056299;28;20059;-84
2021/03/30 04:58:56;;;;;;;9.70;4.38;;;0.20;99.90;;;;;;5055701;28;20501;-84
2021/03/30 05:01:22;;;;;;;7.70;4.45;;;0.20;99.90;;;;;;5055819;28;20052;-84
2021/03/30 05:03:48;;;;;;;12.07;5.82;;;0.10;99.90;;;;;;5055366;28;20135;-84
2021/03/30 05:06:14;;;;;;;7.18;4.65;;;0.10;99.90;;;;;;5055703;28;20053;-84
2021/03/30 05:08:41;;;;;;;11.77;4.68;;;0.10;99.90;;;;;;5054907;28;20076;-84
2021/03/30 05:11:07;;;;;;;28.52;6.75;;;0.20;99.90;;;;;;5055701;28;20083;-84
2021/03/30 05:13:33;;;;;;;16.00;5.30;;;0.20;99.90;;;;;;5055614;28;20045;-84
2021/03/30 05:16:00;;;;;;;11.07;5.15;;;0.20;99.90;;;;;;5055203;28;20045;-84
2021/03/30 05:18:26;;;;;;;11.43;6.18;;;0.30;99.90;;;;;;5055414;28;20421;-84
2021/03/30 05:20:52;;;;;;;9.07;5.32;;;0.40;99.90;;;;;;5055799;28;20049;-85
2021/03/30 05:23:19;;;;;;;16.75;6.70;;;0.30;99.90;;;;;;5055013;28;20114;-84
2021/03/30 05:25:49;;;;;;;13.63;6.30;;;0.30;99.90;;;;;;5056052;28;20053;-85
2021/03/30 05:28:15;;;;;;;15.20;7.00;;;0.30;99.90;;;;;;5055497;28;20075;-84
2021/03/30 05:30:42;;;;;;;18.85;10.13;;;0.20;99.90;;;;;;5055722;28;20069;-82
2021/03/30 05:33:08;;;;;;;25.85;14.10;;;0.30;99.90;;;;;;5055251;28;20077;-84
2021/03/30 05:35:35;;;;;;;15.73;7.85;;;0.40;99.90;;;;;;5056676;28;20052;-84
2021/03/30 05:38:02;;;;;;;14.40;7.38;;;0.50;99.90;;;;;;5055518;28;20132;-84
2021/03/30 05:40:28;;;;;;;14.77;7.38;;;0.50;99.90;;;;;;5055633;28;20053;-84
2021/03/30 05:42:55;;;;;;;13.82;6.43;;;0.50;99.90;;;;;;5054717;28;20063;-84
2021/03/30 05:45:22;;;;;;;11.43;7.38;;;0.50;99.90;;;;;;5056057;28;20460;-84
2021/03/30 05:47:49;;;;;;;17.73;7.82;;;0.60;99.90;;;;;;5055117;28;20104;-84
2021/03/30 05:50:18;;;;;;;11.75;7.40;;;0.70;99.90;;;;;;5055177;28;20076;-84
2021/03/30 05:52:50;;;;;;;15.45;7.97;;;0.70;99.90;;;;;;5054540;28;20493;-84
2021/03/30 05:55:23;;;;;;;17.52;8.25;;;0.70;99.90;;;;;;5055045;28;20060;-83
2021/03/30 05:57:51;;;;;;;19.73;9.82;;;0.80;99.90;;;;;;5055606;28;20072;-82
2021/03/30 06:00:24;;;;;;;24.35;11.30;;;0.90;99.90;;;;;;5055020;28;20056;-82
2021/03/30 06:02:55;;;;;;;28.30;11.07;;;1.00;99.90;;;;;;5056226;28;20103;-82
2021/03/30 06:05:22;;;;;;;44.88;13.60;;;1.20;99.90;;;;;;5056641;28;20456;-82
2021/03/30 06:07:52;;;;;;;48.53;18.10;;;1.40;99.90;;;;;;5055572;28;20501;-83
2021/03/30 06:10:21;;;;;;;335.50;70.90;;;1.90;99.90;;;;;;5054930;28;20440;-84
2021/03/30 06:12:59;;;;;;;32.58;14.95;;;2.80;99.90;;;;;;5054944;28;20069;-84
2021/03/30 06:15:34;;;;;;;18.92;11.23;;;3.90;99.90;;;;;;5054762;28;20053;-84
2021/03/30 06:18:16;;;;;;;19.20;8.70;;;5.40;99.90;;;;;;5056182;28;20094;-82
2021/03/30 06:20:42;;;;;;;17.83;6.60;;;5.80;99.90;;;;;;5055459;28;20056;-82
2021/03/30 06:23:09;;;;;;;95.90;30.42;;;6.50;99.90;;;;;;5056073;28;20051;-82
2021/03/30 06:25:41;;;;;;;18.35;6.40;;;7.10;99.90;;;;;;5055401;28;20453;-82
2021/03/30 06:28:16;;;;;;;15.55;7.15;;;8.20;99.90;;;;;;5056724;28;20512;-83
2021/03/30 06:31:02;;;;;;;24.70;5.28;;;9.10;99.90;;;;;;5056972;28;20073;-83
2021/03/30 06:33:30;;;;;;;233.75;58.40;;;8.70;99.90;;;;;;5055906;28;20053;-82
2021/03/30 06:36:18;;;;;;;56.67;14.25;;;9.90;99.90;;;;;;5055420;28;20508;-83
2021/03/30 06:39:04;;;;;;;340.00;118.25;;;9.60;99.90;;;;;;5055313;28;20053;-83
2021/03/30 06:41:48;;;;;;;22.35;6.28;;;10.50;99.90;;;;;;5056288;28;20061;-82
2021/03/30 06:46:55;;;;;;;20.80;4.13;;;12.10;99.90;;;;;;5056930;28;20041;-83
2021/03/30 06:49:23;;;;;;;41.35;7.10;;;11.70;99.90;;;;;;5057963;28;20413;-83
2021/03/30 06:51:50;;;;;;;39.35;7.75;;;11.30;99.90;;;;;;5056478;28;20085;-83
2021/03/30 06:54:16;;;;;;;40.05;6.70;;;12.60;99.90;;;;;;5054815;28;20502;-83
2021/03/30 06:56:59;;;;;;;6.93;2.80;;;13.30;99.90;;;;;;5054277;28;20091;-84
2021/03/30 06:59:25;;;;;;;8.20;2.90;;;13.50;99.90;;;;;;5054976;28;20122;-83
2021/03/30 07:01:56;;;;;;;7.07;2.58;;;13.80;99.90;;;;;;5055405;28;20080;-83
2021/03/30 07:04:22;;;;;;;8.60;3.30;;;13.50;99.90;;;;;;5054552;28;20053;-83
2021/03/30 07:06:54;;;;;;;15.65;2.22;;;13.00;99.90;;;;;;5056048;28;20076;-83
2021/03/30 07:09:21;;;;;;;5.65;2.33;;;13.50;99.90;;;;;;5055278;28;20114;-83
2021/03/30 07:11:48;;;;;;;9.63;2.78;;;14.10;99.90;;;;;;5054313;28;20099;-83
2021/03/30 07:14:14;;;;;;;10.23;2.63;;;14.30;99.90;;;;;;5054679;28;20105;-83
2021/03/30 07:16:54;;;;;;;25.25;4.40;;;14.90;96.40;;;;;;5054986;28;20049;-83
2021/03/30 07:19:29;;;;;;;30.40;4.65;;;15.20;95.50;;;;;;5057408;28;20084;-83
2021/03/30 07:22:05;;;;;;;17.48;4.07;;;15.80;92.90;;;;;;5054375;28;20080;-83
2021/03/30 07:24:49;;;;;;;7.00;2.60;;;15.50;93.10;;;;;;5054145;28;20110;-83
2021/03/30 07:27:24;;;;;;;7.70;2.55;;;15.60;90.70;;;;;;5053714;28;20564;-83
2021/03/30 07:29:51;;;;;;;9.65;2.40;;;16.20;90.10;;;;;;5055251;28;20049;-83
2021/03/30 07:32:37;;;;;;;23.92;4.05;;;16.90;85.90;;;;;;5058105;28;20531;-83
2021/03/30 07:35:12;;;;;;;26.85;7.57;;;17.20;84.80;;;;;;5057818;28;20048;-83
2021/03/30 07:37:50;;;;;;;104.50;50.35;;;18.00;78.00;;;;;;5057484;28;20048;-83
2021/03/30 07:40:18;;;;;;;65.72;29.30;;;18.40;72.90;;;;;;5057258;28;20049;-83
2021/03/30 07:42:46;;;;;;;202.75;104.78;;;19.40;69.40;;;;;;5057651;28;20489;-83
2021/03/30 07:45:15;;;;;;;140.43;70.72;;;19.50;66.80;;;;;;5057596;28;20429;-83
2021/03/30 07:47:42;;;;;;;45.50;22.52;;;19.70;66.00;;;;;;5058011;28;20091;-83
2021/03/30 07:50:10;;;;;;;28.40;13.80;;;18.60;69.90;;;;;;5059985;28;20053;-83
2021/03/30 07:52:50;;;;;;;36.78;14.15;;;19.30;68.00;;;;;;5058451;28;20417;-84
2021/03/30 07:55:25;;;;;;;89.88;40.25;;;20.20;66.50;;;;;;5059014;28;20394;-83
2021/03/30 07:58:08;;;;;;;55.70;22.75;;;20.40;62.00;;;;;;5060349;28;20052;-83
2021/03/30 08:00:45;;;;;;;21.90;7.32;;;21.50;58.90;;;;;;5060410;28;20049;-83
2021/03/30 08:03:21;;;;;;;47.53;7.47;;;21.90;56.90;;;;;;5059652;28;20143;-83
2021/03/30 08:06:27;;;;;;;21.45;4.20;;;22.70;57.20;;;;;;5058083;28;20041;-83
2021/03/30 08:09:07;;;;;;;19.02;3.95;;;23.00;56.00;;;;;;5059041;28;20048;-83
2021/03/30 08:11:37;;;;;;;37.53;10.00;;;24.30;53.10;;;;;;5058219;28;20127;-84
2021/03/30 08:14:03;;;;;;;24.17;9.77;;;25.20;51.00;;;;;;5058849;28;20105;-83
2021/03/30 08:16:31;;;;;;;44.22;25.48;;;24.60;50.00;;;;;;5059399;28;20073;-84
2021/03/30 08:18:58;;;;;;;81.05;47.13;;;24.10;50.60;;;;;;5058233;28;20110;-84
2021/03/30 08:21:25;;;;;;;16.23;8.35;;;24.30;50.00;;;;;;5058468;28;20100;-84
2021/03/30 08:23:55;;;;;;;93.25;55.28;;;24.60;51.10;;;;;;5059807;28;20055;-84
2021/03/30 08:26:27;;;;;;;15.02;5.00;;;24.50;50.30;;;;;;5060158;28;20045;-84
2021/03/30 08:29:02;;;;;;;29.15;11.23;;;25.10;49.90;;;;;;5058381;28;20151;-84
2021/03/30 08:31:39;;;;;;;23.20;12.40;;;25.90;48.90;;;;;;5057770;28;20073;-83
2021/03/30 08:34:12;;;;;;;24.23;4.45;;;25.40;47.20;;;;;;5058703;28;20106;-83
2021/03/30 08:36:44;;;;;;;123.60;62.38;;;26.10;47.50;;;;;;5061519;28;20053;-84
2021/03/30 08:39:32;;;;;;;30.92;7.38;;;26.60;45.60;;;;;;5058628;28;20081;-83
2021/03/30 08:42:04;;;;;;;25.58;11.93;;;27.70;45.30;;;;;;5056825;28;20076;-83
2021/03/30 08:44:35;;;;;;;24.45;7.78;;;26.70;44.00;;;;;;5057838;28;20452;-83
2021/03/30 08:47:36;;;;;;;20.17;5.72;;;26.30;44.50;;;;;;5058413;28;20041;-83
2021/03/30 08:50:23;;;;;;;22.13;6.75;;;26.80;44.80;;;;;;5058047;28;20041;-83
2021/03/30 08:52:56;;;;;;;22.17;6.22;;;28.20;44.30;;;;;;5057633;28;20092;-82
2021/03/30 08:55:39;;;;;;;17.08;5.38;;;28.20;43.10;;;;;;5058585;28;20441;-83
2021/03/30 08:58:06;;;;;;;18.90;3.90;;;27.90;42.30;;;;;;5057115;28;20053;-84
2021/03/30 09:00:33;;;;;;;8.20;2.53;;;27.50;42.60;;;;;;5057736;28;20469;-83
2021/03/30 09:03:05;;;;;;;16.95;3.83;;;28.60;42.80;;;;;;5057761;28;20088;-84
2021/03/30 09:05:40;;;;;;;21.10;4.00;;;29.30;42.30;;;;;;5056555;28;20408;-83
2021/03/30 09:08:10;;;;;;;10.02;3.28;;;29.90;41.70;;;;;;5056555;28;20127;-83
2021/03/30 09:10:37;;;;;;;8.95;2.72;;;29.70;39.50;;;;;;5057837;28;20072;-84
2021/03/30 09:13:14;;;;;;;7.00;2.60;;;28.70;40.20;;;;;;5059295;28;20045;-84
2021/03/30 09:15:42;;;;;;;8.75;2.42;;;28.50;41.50;;;;;;5059923;28;20501;-83
2021/03/30 09:18:09;;;;;;;9.77;2.53;;;28.20;41.20;;;;;;5057103;28;20084;-83
2021/03/30 09:20:37;;;;;;;5.80;2.50;;;28.00;41.30;;;;;;5058049;28;20052;-83
2021/03/30 09:23:16;;;;;;;17.52;2.80;;;27.70;42.60;;;;;;5059930;28;20056;-82
2021/03/30 09:25:50;;;;;;;5.40;2.25;;;27.50;42.50;;;;;;5058733;28;20094;-83
2021/03/30 09:28:18;;;;;;;4.82;2.20;;;27.70;42.50;;;;;;5058273;28;20505;-83
2021/03/30 09:30:45;;;;;;;5.03;2.45;;;29.50;39.40;;;;;;5058752;28;20048;-83
2021/03/30 09:33:13;;;;;;;5.63;2.30;;;29.90;38.50;;;;;;5056338;28;20049;-83
2021/03/30 09:35:39;;;;;;;5.43;2.20;;;30.70;36.40;;;;;;5056685;28;20144;-84
2021/03/30 09:38:05;;;;;;;4.60;2.38;;;30.50;35.40;;;;;;5057297;28;20079;-83
2021/03/30 09:40:41;;;;;;;4.95;2.22;;;30.30;33.70;;;;;;5055399;28;20045;-83
2021/03/30 09:43:09;;;;;;;4.72;2.47;;;29.50;34.80;;;;;;5056914;28;20417;-83
2021/03/30 09:45:38;;;;;;;3.38;2.00;;;29.70;33.60;;;;;;5056131;28;20099;-83
2021/03/30 09:48:08;;;;;;;8.57;2.70;;;30.20;32.20;;;;;;5055294;28;20083;-83
2021/03/30 09:50:44;;;;;;;2.35;2.00;;;29.60;32.20;;;;;;5055442;28;20080;-83
2021/03/30 09:53:10;;;;;;;2.45;1.80;;;29.10;31.10;;;;;;5056248;28;20049;-83
2021/03/30 09:55:48;;;;;;;2.97;1.83;;;29.90;31.10;;;;;;5056768;28;20493;-83
2021/03/30 09:58:16;;;;;;;10.13;2.25;;;30.50;31.60;;;;;;5058050;28;20075;-83
2021/03/30 10:00:51;;;;;;;3.72;1.80;;;30.90;31.60;;;;;;5054740;28;20052;-83
2021/03/30 10:03:18;;;;;;;2.40;2.17;;;30.60;30.70;;;;;;5056382;28;20107;-84
2021/03/30 10:05:45;;;;;;;5.55;1.88;;;31.10;30.90;;;;;;5055690;28;20059;-84
2021/03/30 10:08:22;;;;;;;4.43;1.90;;;30.50;30.50;;;;;;5054894;28;20053;-83
2021/03/30 10:10:54;;;;;;;6.18;2.00;;;31.40;30.50;;;;;;5055075;28;20053;-83
2021/03/30 10:13:32;;;;;;;4.53;1.80;;;34.40;29.90;;;;;;5054901;28;20049;-82
2021/03/30 10:16:01;;;;;;;6.07;2.20;;;33.20;28.40;;;;;;5056134;28;20175;-83
2021/03/30 10:18:28;;;;;;;17.35;2.65;;;32.20;28.50;;;;;;5054936;28;20472;-83
2021/03/30 10:20:57;;;;;;;56.78;5.65;;;31.90;29.50;;;;;;5054836;28;20413;-83
2021/03/30 10:23:29;;;;;;;28.70;5.13;;;32.80;30.00;;;;;;5055873;28;20410;-84
2021/03/30 10:26:15;;;;;;;7.22;1.70;;;33.60;29.90;;;;;;5053863;28;20057;-83
2021/03/30 10:29:02;;;;;;;6.40;1.85;;;32.90;28.40;;;;;;5054724;28;20135;-84
2021/03/30 10:31:41;;;;;;;6.25;1.88;;;31.80;29.50;;;;;;5054232;28;20132;-83
2021/03/30 10:34:29;;;;;;;9.75;2.30;;;31.60;29.80;;;;;;5055923;28;20049;-83
2021/03/30 10:37:02;;;;;;;33.30;16.92;;;32.50;28.90;;;;;;5054137;28;20132;-83
2021/03/30 10:39:37;;;;;;;9.05;3.40;;;31.70;29.20;;;;;;5054400;28;20045;-84
2021/03/30 10:42:17;;;;;;;5.38;2.08;;;33.00;28.90;;;;;;5054266;28;20041;-83
2021/03/30 10:44:43;;;;;;;3.53;1.42;;;33.30;28.30;;;;;;5055181;28;20485;-83
2021/03/30 10:47:24;;;;;;;4.03;1.40;;;34.40;28.90;;;;;;5055133;28;20052;-83
2021/03/30 10:49:54;;;;;;;5.82;1.50;;;33.10;29.00;;;;;;5055711;28;20045;-83
2021/03/30 10:52:24;;;;;;;3.65;1.10;;;33.00;29.20;;;;;;5055349;28;20049;-83
2021/03/30 10:54:52;;;;;;;3.40;1.38;;;31.80;29.40;;;;;;5053721;28;20048;-84
2021/03/30 10:57:20;;;;;;;3.63;1.25;;;31.10;29.90;;;;;;5054043;28;20045;-83
2021/03/30 10:59:47;;;;;;;4.30;1.85;;;32.00;29.70;;;;;;5055828;28;20131;-83
2021/03/30 11:02:14;;;;;;;4.70;1.52;;;31.80;29.50;;;;;;5055162;28;20503;-83
2021/03/30 11:04:41;;;;;;;3.22;1.20;;;31.70;29.40;;;;;;5054059;28;20067;-82
2021/03/30 11:07:09;;;;;;;2.75;1.30;;;31.80;30.10;;;;;;5054618;28;20132;-82
2021/03/30 11:09:36;;;;;;;4.03;1.42;;;32.60;30.10;;;;;;5054014;28;20075;-83
2021/03/30 11:12:03;;;;;;;3.40;1.40;;;33.80;28.80;;;;;;5054296;28;20135;-82
2021/03/30 11:14:29;;;;;;;3.83;1.40;;;34.80;29.00;;;;;;5054246;28;20048;-83
2021/03/30 11:16:55;;;;;;;4.20;1.27;;;33.20;29.10;;;;;;5054722;28;20513;-83
2021/03/30 11:19:23;;;;;;;5.50;1.55;;;34.10;30.30;;;;;;5054603;28;20045;-83
2021/03/30 11:21:50;;;;;;;2.97;1.23;;;35.70;28.70;;;;;;5054055;28;20128;-83
2021/03/30 11:24:18;;;;;;;4.65;1.38;;;34.90;27.90;;;;;;5054832;28;20498;-83
2021/03/30 11:26:50;;;;;;;3.83;1.17;;;35.20;27.60;;;;;;5053953;28;20131;-83
2021/03/30 11:34:41;;;;;;;5.80;1.45;;;34.50;28.90;;;;;;5055344;28;20098;-84
2021/03/30 11:37:22;;;;;;;6.00;1.23;;;34.00;29.00;;;;;;5054511;28;20465;-83
2021/03/30 11:39:52;;;;;;;3.17;1.53;;;32.80;29.70;;;;;;5054110;28;20120;-83
2021/03/30 11:42:18;;;;;;;1.90;1.27;;;32.30;30.50;;;;;;5055771;28;20096;-83
2021/03/30 11:44:45;;;;;;;1.27;1.17;;;33.60;29.30;;;;;;5059443;28;20041;-83
2021/03/30 11:47:11;;;;;;;3.80;1.40;;;32.80;29.60;;;;;;5054010;28;20125;-82
2021/03/30 11:49:38;;;;;;;3.63;1.40;;;32.80;30.20;;;;;;5055452;28;20156;-84
2021/03/30 11:52:05;;;;;;;4.07;1.40;;;31.70;29.70;;;;;;5054718;28;20056;-83
2021/03/30 11:54:32;;;;;;;4.53;1.60;;;30.80;29.90;;;;;;5054531;28;20056;-83
2021/03/30 11:56:59;;;;;;;2.03;1.40;;;32.00;30.00;;;;;;5054603;28;20132;-83
2021/03/30 11:59:31;;;;;;;1.88;1.20;;;32.00;30.10;;;;;;5055158;28;20565;-83
2021/03/30 12:01:57;;;;;;;1.90;1.40;;;33.10;30.00;;;;;;5053712;28;20124;-83
2021/03/30 12:04:24;;;;;;;2.65;1.13;;;32.80;29.20;;;;;;5054594;28;20517;-83
2021/03/30 12:06:53;;;;;;;4.93;1.50;;;32.90;29.60;;;;;;5052684;28;20135;-83
2021/03/30 12:09:19;;;;;;;1.13;1.02;;;32.20;29.40;;;;;;5053746;28;20057;-83
2021/03/30 12:11:46;;;;;;;3.60;1.70;;;31.50;30.40;;;;;;5053531;28;20049;-84
2021/03/30 12:14:15;;;;;;;7.53;1.65;;;31.90;30.90;;;;;;5054156;28;20464;-83
2021/03/30 12:16:43;;;;;;;8.68;1.77;;;31.10;30.60;;;;;;5053199;28;20048;-84
2021/03/30 12:19:09;;;;;;;6.95;1.45;;;30.10;32.40;;;;;;5056957;28;20106;-83
2021/03/30 12:21:36;;;;;;;9.80;1.42;;;29.60;33.10;;;;;;5057237;28;20083;-83
2021/03/30 12:24:02;;;;;;;8.02;1.58;;;29.70;32.90;;;;;;5057372;28;20127;-83
2021/03/30 12:26:28;;;;;;;2.88;1.27;;;29.60;32.20;;;;;;5056854;28;20087;-84
2021/03/30 12:29:00;;;;;;;5.72;1.67;;;30.50;33.60;;;;;;5057108;28;20147;-84
2021/03/30 12:31:26;;;;;;;3.72;1.42;;;30.70;32.40;;;;;;5058600;28;20044;-83
2021/03/30 12:33:53;;;;;;;3.38;1.50;;;31.10;31.40;;;;;;5056946;28;20144;-84
2021/03/30 12:36:19;;;;;;;7.70;1.48;;;30.90;31.70;;;;;;5058682;28;20069;-83
2021/03/30 12:38:45;;;;;;;4.32;1.77;;;30.10;32.10;;;;;;5058110;28;20045;-83
2021/03/30 12:41:13;;;;;;;2.17;1.42;;;29.10;33.70;;;;;;5056398;28;20080;-83
2021/03/30 12:43:39;;;;;;;5.25;1.70;;;29.60;33.20;;;;;;5056106;28;20547;-83
2021/03/30 12:46:09;;;;;;;3.00;1.50;;;29.80;33.80;;;;;;5057599;28;20230;-83
2021/03/30 12:48:35;;;;;;;3.90;1.88;;;28.80;34.50;;;;;;5057824;28;20051;-83
2021/03/30 12:51:05;;;;;;;2.40;1.38;;;29.00;33.30;;;;;;5056273;28;20132;-84
2021/03/30 12:53:32;;;;;;;3.42;1.83;;;29.30;33.60;;;;;;5056589;28;20056;-82
2021/03/30 12:55:59;;;;;;;2.63;1.75;;;28.00;34.00;;;;;;5056700;28;20175;-82
2021/03/30 12:58:25;;;;;;;4.43;1.70;;;28.30;34.60;;;;;;5058621;28;20045;-83
2021/03/30 13:00:51;;;;;;;10.25;2.33;;;27.80;35.30;;;;;;5057562;28;20084;-82
2021/03/30 13:03:37;;;;;;;3.25;1.50;;;27.30;36.10;;;;;;5057677;28;20412;-82
2021/03/30 13:06:04;;;;;;;1.73;1.58;;;27.20;34.90;;;;;;5056509;28;20048;-82
2021/03/30 13:08:30;;;;;;;3.97;1.60;;;26.90;36.20;;;;;;5056904;28;20511;-81
2021/03/30 13:10:56;;;;;;;2.28;1.55;;;27.30;36.10;;;;;;5057017;28;20136;-81
2021/03/30 13:13:23;;;;;;;1.70;1.60;;;27.80;37.00;;;;;;5061248;28;20513;-82